createdAt,value
2018-12-22T00:00:47.948Z,853.49
2018-12-22T00:01:48.981Z,853.52
2018-12-22T00:02:47.936Z,853.47
2018-12-22T00:03:47.985Z,853.59
2018-12-22T00:04:47.905Z,853.58
2018-12-22T00:05:47.893Z,853.63
2018-12-22T00:06:47.891Z,853.68
2018-12-22T00:07:47.877Z,853.70
2018-12-22T00:08:47.937Z,853.67
2018-12-22T00:09:47.870Z,853.66
2018-12-22T00:10:47.835Z,853.59
2018-12-22T00:11:47.823Z,853.60
2018-12-22T00:12:47.821Z,853.57
2018-12-22T00:13:47.811Z,853.56
2018-12-22T00:14:47.852Z,853.59
2018-12-22T00:15:47.803Z,853.61
2018-12-22T00:16:47.768Z,853.68
2018-12-22T00:17:47.768Z,853.67
2018-12-22T00:18:47.754Z,853.64
2018-12-22T00:19:47.748Z,853.69
2018-12-22T00:20:47.796Z,853.65
2018-12-22T00:21:47.722Z,853.65
2018-12-22T00:22:47.734Z,853.66
2018-12-22T00:23:47.715Z,853.62
2018-12-22T00:24:47.692Z,853.67
2018-12-22T00:25:47.683Z,853.65
2018-12-22T00:26:47.737Z,853.64
2018-12-22T00:27:47.657Z,853.67
2018-12-22T00:28:47.649Z,853.67
2018-12-22T00:29:47.654Z,853.66
2018-12-22T00:30:47.663Z,853.65
2018-12-22T00:31:47.637Z,853.61
2018-12-22T00:32:47.627Z,853.67
2018-12-22T00:33:47.594Z,853.60
2018-12-22T00:34:47.584Z,853.65
2018-12-22T00:35:47.575Z,853.59
2018-12-22T00:36:47.606Z,853.48
2018-12-22T00:37:47.580Z,853.46
2018-12-22T00:38:47.552Z,853.41
2018-12-22T00:39:47.565Z,853.36
2018-12-22T00:40:47.532Z,853.36
2018-12-22T00:41:47.545Z,853.38
2018-12-22T00:42:47.512Z,853.36
2018-12-22T00:43:47.496Z,853.36
2018-12-22T00:44:47.474Z,853.39
2018-12-22T00:45:47.465Z,853.40
2018-12-22T00:46:47.455Z,853.41
2018-12-22T00:47:47.529Z,853.33
2018-12-22T00:48:47.466Z,853.35
2018-12-22T00:49:47.443Z,853.33
2018-12-22T00:50:47.413Z,853.38
2018-12-22T00:51:47.449Z,853.44
2018-12-22T00:52:47.388Z,853.46
2018-12-22T00:53:47.378Z,853.47
2018-12-22T00:54:47.384Z,853.44
2018-12-22T00:55:47.360Z,853.45
2018-12-22T00:56:47.351Z,853.44
2018-12-22T00:57:47.379Z,853.41
2018-12-22T00:58:47.332Z,853.37
2018-12-22T00:59:47.319Z,853.44
2018-12-22T01:00:47.333Z,853.48
2018-12-22T01:01:47.299Z,853.56
2018-12-22T01:02:47.287Z,853.58
2018-12-22T01:03:47.317Z,853.55
2018-12-22T01:04:47.274Z,853.54
2018-12-22T01:05:47.252Z,853.50
2018-12-22T01:06:47.297Z,853.52
2018-12-22T01:07:47.245Z,853.48
2018-12-22T01:08:47.288Z,853.50
2018-12-22T01:09:47.218Z,853.50
2018-12-22T01:10:47.208Z,853.50
2018-12-22T01:11:47.194Z,853.43
2018-12-22T01:12:47.175Z,853.38
2018-12-22T01:13:47.197Z,853.34
2018-12-22T01:14:47.198Z,853.34
2018-12-22T01:15:47.144Z,853.32
2018-12-22T01:16:47.137Z,853.36
2018-12-22T01:17:47.128Z,853.35
2018-12-22T01:18:47.155Z,853.43
2018-12-22T01:19:47.128Z,853.44
2018-12-22T01:20:47.164Z,853.45
2018-12-22T01:21:47.095Z,853.50
2018-12-22T01:22:47.103Z,853.52
2018-12-22T01:23:47.072Z,853.57
2018-12-22T01:24:47.088Z,853.52
2018-12-22T01:25:47.041Z,853.49
2018-12-22T01:26:47.029Z,853.41
2018-12-22T01:27:47.057Z,853.53
2018-12-22T01:28:47.051Z,853.52
2018-12-22T01:29:47.028Z,853.52
2018-12-22T01:30:47.070Z,853.46
2018-12-22T01:31:46.979Z,853.49
2018-12-22T01:32:46.972Z,853.48
2018-12-22T01:33:46.969Z,853.53
2018-12-22T01:34:46.951Z,853.53
2018-12-22T01:35:46.944Z,853.53
2018-12-22T01:36:47.285Z,853.57
2018-12-22T01:37:46.912Z,853.62
2018-12-22T01:38:47.320Z,853.57
2018-12-22T01:39:46.935Z,853.52
2018-12-22T01:40:46.909Z,853.55
2018-12-22T01:41:46.875Z,853.54
2018-12-22T01:42:46.860Z,853.59
2018-12-22T01:43:46.862Z,853.61
2018-12-22T01:44:46.967Z,853.69
2018-12-22T01:45:46.894Z,853.64
2018-12-22T01:46:46.972Z,853.58
2018-12-22T01:47:46.809Z,853.65
2018-12-22T01:48:46.808Z,853.61
2018-12-22T01:49:46.809Z,853.61
2018-12-22T01:50:46.782Z,853.59
2018-12-22T01:51:46.830Z,853.52
2018-12-22T01:52:46.752Z,853.56
2018-12-22T01:53:46.744Z,853.49
2018-12-22T01:54:46.758Z,853.52
2018-12-22T01:55:47.060Z,853.55
2018-12-22T01:56:46.727Z,853.43
2018-12-22T01:57:46.771Z,853.49
2018-12-22T01:58:47.915Z,853.43
2018-12-22T01:59:46.702Z,853.49
2018-12-22T02:00:46.680Z,853.51
2018-12-22T02:01:46.709Z,853.51
2018-12-22T02:02:46.680Z,853.51
2018-12-22T02:03:46.638Z,853.53
2018-12-22T02:04:46.626Z,853.55
2018-12-22T02:05:46.614Z,853.51
2018-12-22T02:06:46.604Z,853.50
2018-12-22T02:07:46.644Z,853.50
2018-12-22T02:08:46.613Z,853.47
2018-12-22T02:09:46.569Z,853.47
2018-12-22T02:10:46.559Z,853.54
2018-12-22T02:11:46.558Z,853.59
2018-12-22T02:12:46.581Z,853.56
2018-12-22T02:13:46.523Z,853.57
2018-12-22T02:14:46.536Z,853.63
2018-12-22T02:15:46.501Z,853.64
2018-12-22T02:16:46.507Z,853.64
2018-12-22T02:17:46.487Z,853.60
2018-12-22T02:18:46.531Z,853.59
2018-12-22T02:19:46.461Z,853.60
2018-12-22T02:20:46.452Z,853.59
2018-12-22T02:21:46.441Z,853.60
2018-12-22T02:22:46.464Z,853.61
2018-12-22T02:23:46.440Z,853.61
2018-12-22T02:24:46.459Z,853.64
2018-12-22T02:25:46.398Z,853.61
2018-12-22T02:26:46.416Z,853.62
2018-12-22T02:27:46.379Z,853.57
2018-12-22T02:28:46.398Z,853.56
2018-12-22T02:29:46.371Z,853.55
2018-12-22T02:30:46.390Z,853.53
2018-12-22T02:31:46.337Z,853.55
2018-12-22T02:32:46.326Z,853.56
2018-12-22T02:33:46.339Z,853.54
2018-12-22T02:34:46.302Z,853.50
2018-12-22T02:35:46.299Z,853.54
2018-12-22T02:36:46.321Z,853.50
2018-12-22T02:37:46.268Z,853.46
2018-12-22T02:38:46.261Z,853.41
2018-12-22T02:39:46.293Z,853.37
2018-12-22T02:40:46.253Z,853.40
2018-12-22T02:41:46.242Z,853.44
2018-12-22T02:42:46.237Z,853.46
2018-12-22T02:43:46.219Z,853.49
2018-12-22T02:44:46.211Z,853.45
2018-12-22T02:45:46.232Z,853.47
2018-12-22T02:46:46.191Z,853.46
2018-12-22T02:47:46.188Z,853.40
2018-12-22T02:48:46.163Z,853.44
2018-12-22T02:49:46.193Z,853.44
2018-12-22T02:50:46.139Z,853.45
2018-12-22T02:51:46.126Z,853.47
2018-12-22T02:52:46.114Z,853.43
2018-12-22T02:53:46.117Z,853.46
2018-12-22T02:54:46.131Z,853.46
2018-12-22T02:55:46.124Z,853.49
2018-12-22T02:56:46.071Z,853.54
2018-12-22T02:57:46.086Z,853.55
2018-12-22T02:58:46.050Z,853.44
2018-12-22T02:59:46.035Z,853.43
2018-12-22T03:00:46.770Z,853.45
2018-12-22T03:01:46.021Z,853.47
2018-12-22T03:02:46.036Z,853.48
2018-12-22T03:03:46.049Z,853.47
2018-12-22T03:04:45.991Z,853.39
2018-12-22T03:05:45.982Z,853.36
2018-12-22T03:06:46.040Z,853.40
2018-12-22T03:07:45.999Z,853.40
2018-12-22T03:08:45.964Z,853.38
2018-12-22T03:09:45.931Z,853.34
2018-12-22T03:10:45.928Z,853.35
2018-12-22T03:11:45.911Z,853.38
2018-12-22T03:12:45.956Z,853.38
2018-12-22T03:13:45.924Z,853.36
2018-12-22T03:14:45.882Z,853.38
2018-12-22T03:15:45.866Z,853.37
2018-12-22T03:16:46.697Z,853.42
2018-12-22T03:17:45.847Z,853.40
2018-12-22T03:18:46.216Z,853.40
2018-12-22T03:19:45.823Z,853.42
2018-12-22T03:20:46.741Z,853.38
2018-12-22T03:21:45.810Z,853.35
2018-12-22T03:22:45.790Z,853.46
2018-12-22T03:23:45.820Z,853.49
2018-12-22T03:24:45.821Z,853.50
2018-12-22T03:25:45.759Z,853.51
2018-12-22T03:26:45.767Z,853.54
2018-12-22T03:27:45.741Z,853.49
2018-12-22T03:28:45.726Z,853.48
2018-12-22T03:29:45.727Z,853.49
2018-12-22T03:30:45.757Z,853.44
2018-12-22T03:31:45.696Z,853.45
2018-12-22T03:32:46.228Z,853.44
2018-12-22T03:33:45.742Z,853.48
2018-12-22T03:34:45.672Z,853.55
2018-12-22T03:35:45.656Z,853.47
2018-12-22T03:36:45.688Z,853.55
2018-12-22T03:37:45.629Z,853.55
2018-12-22T03:38:45.618Z,853.54
2018-12-22T03:39:45.609Z,853.54
2018-12-22T03:40:45.625Z,853.54
2018-12-22T03:41:45.602Z,853.50
2018-12-22T03:42:45.627Z,853.54
2018-12-22T03:43:45.569Z,853.56
2018-12-22T03:44:45.559Z,853.54
2018-12-22T03:45:45.553Z,853.54
2018-12-22T03:46:45.544Z,853.56
2018-12-22T03:47:45.539Z,853.54
2018-12-22T03:48:45.586Z,853.45
2018-12-22T03:49:45.504Z,853.44
2018-12-22T03:50:45.515Z,853.41
2018-12-22T03:51:45.492Z,853.47
2018-12-22T03:52:45.489Z,853.46
2018-12-22T03:53:45.475Z,853.48
2018-12-22T03:54:45.516Z,853.53
2018-12-22T03:55:45.452Z,853.47
2018-12-22T03:56:45.437Z,853.48
2018-12-22T03:57:45.417Z,853.53
2018-12-22T03:58:45.405Z,853.53
2018-12-22T03:59:45.410Z,853.54
2018-12-22T04:00:45.451Z,853.58
2018-12-22T04:01:45.374Z,853.60
2018-12-22T04:02:45.415Z,853.62
2018-12-22T04:03:45.356Z,853.55
2018-12-22T04:04:45.348Z,853.62
2018-12-22T04:05:45.335Z,853.58
2018-12-22T04:06:45.362Z,853.64
2018-12-22T04:07:45.308Z,853.62
2018-12-22T04:08:45.361Z,853.72
2018-12-22T04:09:45.287Z,853.71
2018-12-22T04:10:45.299Z,853.66
2018-12-22T04:11:45.312Z,853.65
2018-12-22T04:12:45.251Z,853.63
2018-12-22T04:13:45.253Z,853.68
2018-12-22T04:14:45.254Z,853.73
2018-12-22T04:15:45.227Z,853.73
2018-12-22T04:16:45.232Z,853.81
2018-12-22T04:17:45.265Z,853.87
2018-12-22T04:18:45.199Z,853.88
2018-12-22T04:19:45.227Z,853.84
2018-12-22T04:20:45.207Z,853.90
2018-12-22T04:21:45.207Z,853.88
2018-12-22T04:22:45.167Z,853.86
2018-12-22T04:23:45.145Z,853.91
2018-12-22T04:24:45.137Z,853.93
2018-12-22T04:25:45.140Z,853.83
2018-12-22T04:26:45.112Z,853.89
2018-12-22T04:27:45.133Z,853.83
2018-12-22T04:28:45.084Z,853.80
2018-12-22T04:29:45.071Z,853.76
2018-12-22T04:30:45.062Z,853.83
2018-12-22T04:31:45.135Z,853.84
2018-12-22T04:32:45.049Z,853.92
2018-12-22T04:33:45.036Z,853.93
2018-12-22T04:34:45.026Z,854.02
2018-12-22T04:35:45.024Z,853.96
2018-12-22T04:36:45.010Z,853.98
2018-12-22T04:37:45.040Z,854.02
2018-12-22T04:38:44.991Z,854.10
2018-12-22T04:39:45.000Z,854.14
2018-12-22T04:40:44.973Z,854.13
2018-12-22T04:41:44.960Z,854.21
2018-12-22T04:42:44.966Z,854.21
2018-12-22T04:43:45.062Z,854.17
2018-12-22T04:44:44.920Z,854.20
2018-12-22T04:45:44.918Z,854.17
2018-12-22T04:46:44.891Z,854.12
2018-12-22T04:47:44.881Z,854.12
2018-12-22T04:48:44.904Z,854.08
2018-12-22T04:49:44.883Z,854.04
2018-12-22T04:50:44.869Z,853.98
2018-12-22T04:51:44.853Z,853.95
2018-12-22T04:52:44.824Z,854.00
2018-12-22T04:53:44.825Z,854.05
2018-12-22T04:54:44.845Z,854.06
2018-12-22T04:55:44.795Z,854.09
2018-12-22T04:56:44.791Z,854.12
2018-12-22T04:57:44.778Z,854.22
2018-12-22T04:58:44.775Z,854.27
2018-12-22T04:59:44.767Z,854.25
2018-12-22T05:00:44.796Z,854.21
2018-12-22T05:01:44.739Z,854.19
2018-12-22T05:02:44.714Z,854.12
2018-12-22T05:03:44.749Z,854.03
2018-12-22T05:04:44.715Z,853.94
2018-12-22T05:05:44.705Z,853.90
2018-12-22T05:06:44.735Z,853.89
2018-12-22T05:07:44.660Z,853.88
2018-12-22T05:08:44.648Z,853.86
2018-12-22T05:09:44.639Z,853.86
2018-12-22T05:10:44.649Z,853.86
2018-12-22T05:11:44.626Z,853.90
2018-12-22T05:12:44.644Z,853.89
2018-12-22T05:13:44.637Z,853.91
2018-12-22T05:14:44.624Z,853.96
2018-12-22T05:15:44.577Z,853.92
2018-12-22T05:16:44.612Z,853.93
2018-12-22T05:17:44.570Z,853.89
2018-12-22T05:18:44.567Z,853.94
2018-12-22T05:19:44.543Z,853.83
2018-12-22T05:20:44.524Z,853.86
2018-12-22T05:21:44.589Z,853.83
2018-12-22T05:22:44.516Z,853.85
2018-12-22T05:23:44.491Z,853.86
2018-12-22T05:24:44.487Z,853.89
2018-12-22T05:25:44.502Z,853.93
2018-12-22T05:26:44.480Z,853.94
2018-12-22T05:27:44.488Z,853.99
2018-12-22T05:28:44.460Z,854.03
2018-12-22T05:29:51.769Z,854.10
2018-12-22T05:30:45.523Z,854.10
2018-12-22T05:31:44.440Z,854.03
2018-12-22T05:32:44.408Z,853.98
2018-12-22T05:33:44.499Z,853.99
2018-12-22T05:34:44.396Z,854.02
2018-12-22T05:35:44.430Z,854.07
2018-12-22T05:36:44.347Z,854.00
2018-12-22T05:37:44.373Z,854.03
2018-12-22T05:38:44.342Z,854.01
2018-12-22T05:39:44.343Z,854.00
2018-12-22T05:40:44.349Z,853.95
2018-12-22T05:41:44.336Z,853.89
2018-12-22T05:42:44.316Z,853.83
2018-12-22T05:43:44.272Z,853.86
2018-12-22T05:44:44.271Z,853.82
2018-12-22T05:45:44.263Z,853.80
2018-12-22T05:46:44.250Z,853.79
2018-12-22T05:47:44.310Z,853.83
2018-12-22T05:48:44.230Z,853.89
2018-12-22T05:49:44.224Z,853.93
2018-12-22T05:50:44.235Z,853.93
2018-12-22T05:51:44.210Z,853.94
2018-12-22T05:52:44.187Z,853.90
2018-12-22T05:53:44.205Z,853.88
2018-12-22T05:54:44.164Z,853.92
2018-12-22T05:55:44.201Z,853.86
2018-12-22T05:56:44.132Z,853.96
2018-12-22T05:57:44.177Z,853.92
2018-12-22T05:58:44.142Z,853.86
2018-12-22T05:59:44.101Z,853.88
2018-12-22T06:00:44.107Z,853.88
2018-12-22T06:01:44.081Z,853.94
2018-12-22T06:02:44.094Z,853.93
2018-12-22T06:03:44.167Z,853.95
2018-12-22T06:04:44.051Z,853.95
2018-12-22T06:05:44.075Z,854.01
2018-12-22T06:06:44.031Z,854.01
2018-12-22T06:07:44.033Z,854.01
2018-12-22T06:08:44.016Z,854.00
2018-12-22T06:09:44.026Z,854.03
2018-12-22T06:10:44.004Z,854.03
2018-12-22T06:11:44.007Z,853.99
2018-12-22T06:12:43.998Z,853.94
2018-12-22T06:13:43.977Z,853.97
2018-12-22T06:14:43.942Z,854.00
2018-12-22T06:15:43.987Z,854.07
2018-12-22T06:16:43.949Z,854.17
2018-12-22T06:17:43.978Z,854.22
2018-12-22T06:18:43.930Z,854.16
2018-12-22T06:19:43.982Z,854.12
2018-12-22T06:20:43.910Z,854.12
2018-12-22T06:21:43.915Z,854.05
2018-12-22T06:22:43.898Z,854.08
2018-12-22T06:23:43.900Z,854.13
2018-12-22T06:24:43.851Z,854.12
2018-12-22T06:25:43.863Z,854.10
2018-12-22T06:26:43.818Z,854.14
2018-12-22T06:27:43.804Z,854.16
2018-12-22T06:28:43.843Z,854.08
2018-12-22T06:29:43.829Z,854.08
2018-12-22T06:30:43.790Z,854.02
2018-12-22T06:31:43.789Z,854.01
2018-12-22T06:32:43.750Z,854.04
2018-12-22T06:33:43.762Z,854.08
2018-12-22T06:34:43.770Z,854.05
2018-12-22T06:35:43.774Z,854.03
2018-12-22T06:36:43.710Z,854.00
2018-12-22T06:37:43.715Z,854.00
2018-12-22T06:38:43.703Z,853.99
2018-12-22T06:39:43.737Z,854.04
2018-12-22T06:40:43.687Z,854.00
2018-12-22T06:41:43.667Z,854.00
2018-12-22T06:42:43.667Z,853.99
2018-12-22T06:43:43.669Z,854.08
2018-12-22T06:44:43.672Z,854.17
2018-12-22T06:45:43.634Z,854.12
2018-12-22T06:46:43.625Z,854.17
2018-12-22T06:47:43.612Z,854.09
2018-12-22T06:48:43.615Z,854.01
2018-12-22T06:49:43.576Z,853.96
2018-12-22T06:50:43.598Z,853.99
2018-12-22T06:51:43.562Z,854.00
2018-12-22T06:52:43.561Z,854.01
2018-12-22T06:53:43.524Z,854.04
2018-12-22T06:54:43.567Z,854.08
2018-12-22T06:55:43.581Z,854.09
2018-12-22T06:56:43.493Z,854.03
2018-12-22T06:57:43.528Z,854.03
2018-12-22T06:58:43.487Z,854.03
2018-12-22T06:59:43.471Z,854.03
2018-12-22T07:00:43.450Z,854.03
2018-12-22T07:01:43.443Z,854.11
2018-12-22T07:02:43.485Z,854.16
2018-12-22T07:03:43.428Z,854.17
2018-12-22T07:04:43.433Z,854.13
2018-12-22T07:05:43.407Z,854.06
2018-12-22T07:06:43.417Z,854.02
2018-12-22T07:07:43.385Z,854.06
2018-12-22T07:08:43.435Z,854.08
2018-12-22T07:09:43.392Z,854.18
2018-12-22T07:10:43.373Z,854.10
2018-12-22T07:11:43.342Z,854.05
2018-12-22T07:12:43.352Z,854.05
2018-12-22T07:13:43.354Z,854.02
2018-12-22T07:14:43.326Z,854.04
2018-12-22T07:15:43.318Z,854.13
2018-12-22T07:16:43.310Z,854.16
2018-12-22T07:17:43.280Z,854.10
2018-12-22T07:18:43.273Z,854.12
2018-12-22T07:19:43.293Z,854.17
2018-12-22T07:20:43.260Z,854.15
2018-12-22T07:21:43.282Z,854.10
2018-12-22T07:22:43.251Z,854.07
2018-12-22T07:23:43.206Z,854.16
2018-12-22T07:24:43.206Z,854.18
2018-12-22T07:25:43.259Z,854.18
2018-12-22T07:26:43.194Z,854.24
2018-12-22T07:27:43.179Z,854.29
2018-12-22T07:28:43.171Z,854.24
2018-12-22T07:29:43.152Z,854.34
2018-12-22T07:30:43.165Z,854.34
2018-12-22T07:31:43.133Z,854.36
2018-12-22T07:32:43.129Z,854.40
2018-12-22T07:33:43.115Z,854.43
2018-12-22T07:34:43.330Z,854.57
2018-12-22T07:35:43.151Z,854.57
2018-12-22T07:36:43.127Z,854.60
2018-12-22T07:37:43.058Z,854.64
2018-12-22T07:38:43.049Z,854.69
2018-12-22T07:39:43.266Z,854.68
2018-12-22T07:40:43.094Z,854.64
2018-12-22T07:41:43.064Z,854.69
2018-12-22T07:42:43.034Z,854.79
2018-12-22T07:43:43.002Z,854.80
2018-12-22T07:44:42.999Z,854.88
2018-12-22T07:45:43.030Z,854.93
2018-12-22T07:46:42.958Z,854.90
2018-12-22T07:47:43.070Z,854.88
2018-12-22T07:48:43.153Z,854.86
2018-12-22T07:49:43.012Z,854.74
2018-12-22T07:50:42.950Z,854.77
2018-12-22T07:51:42.960Z,854.72
2018-12-22T07:52:51.416Z,854.74
2018-12-22T07:53:43.981Z,854.72
2018-12-22T07:54:43.802Z,854.59
2018-12-22T07:55:42.881Z,854.63
2018-12-22T07:56:42.889Z,854.73
2018-12-22T07:57:43.142Z,854.74
2018-12-22T07:58:42.886Z,854.70
2018-12-22T07:59:42.829Z,854.62
2018-12-22T08:00:42.893Z,854.62
2018-12-22T08:01:42.801Z,854.63
2018-12-22T08:02:42.804Z,854.69
2018-12-22T08:03:42.832Z,854.77
2018-12-22T08:04:42.791Z,854.76
2018-12-22T08:05:42.756Z,854.68
2018-12-22T08:06:42.750Z,854.70
2018-12-22T08:07:42.757Z,854.78
2018-12-22T08:08:42.723Z,854.76
2018-12-22T08:09:42.766Z,854.78
2018-12-22T08:10:53.935Z,854.74
2018-12-22T08:11:42.727Z,854.75
2018-12-22T08:12:42.697Z,854.74
2018-12-22T08:13:42.803Z,854.71
2018-12-22T08:14:42.766Z,854.70
2018-12-22T08:15:43.093Z,854.68
2018-12-22T08:16:42.668Z,854.70
2018-12-22T08:17:42.631Z,854.76
2018-12-22T08:18:42.642Z,854.77
2018-12-22T08:19:42.626Z,854.78
2018-12-22T08:20:42.625Z,854.79
2018-12-22T08:21:42.620Z,854.80
2018-12-22T08:22:42.641Z,854.81
2018-12-22T08:23:42.580Z,854.76
2018-12-22T08:24:42.578Z,854.72
2018-12-22T08:25:42.552Z,854.72
2018-12-22T08:26:42.598Z,854.67
2018-12-22T08:27:42.566Z,854.64
2018-12-22T08:28:42.523Z,854.63
2018-12-22T08:29:42.520Z,854.64
2018-12-22T08:30:43.693Z,854.66
2018-12-22T08:31:42.520Z,854.59
2018-12-22T08:32:42.522Z,854.62
2018-12-22T08:33:42.530Z,854.54
2018-12-22T08:34:42.479Z,854.60
2018-12-22T08:35:42.444Z,854.58
2018-12-22T08:36:42.451Z,854.61
2018-12-22T08:37:42.450Z,854.72
2018-12-22T08:38:42.469Z,854.74
2018-12-22T08:39:42.463Z,854.77
2018-12-22T08:40:42.386Z,854.74
2018-12-22T08:41:42.399Z,854.80
2018-12-22T08:42:42.389Z,854.83
2018-12-22T08:43:42.368Z,854.84
2018-12-22T08:44:42.947Z,854.84
2018-12-22T08:45:49.902Z,854.77
2018-12-22T08:46:42.342Z,854.82
2018-12-22T08:47:42.335Z,854.70
2018-12-22T08:48:42.307Z,854.70
2018-12-22T08:49:42.333Z,854.76
2018-12-22T08:50:42.342Z,854.76
2018-12-22T08:51:42.323Z,854.82
2018-12-22T08:52:42.296Z,854.79
2018-12-22T08:53:42.339Z,854.88
2018-12-22T08:54:42.249Z,854.93
2018-12-22T08:55:42.262Z,854.96
2018-12-22T08:56:42.272Z,854.94
2018-12-22T08:57:42.218Z,854.98
2018-12-22T08:58:42.217Z,854.98
2018-12-22T08:59:42.233Z,854.98
2018-12-22T09:00:42.216Z,854.99
2018-12-22T09:01:42.187Z,854.97
2018-12-22T09:02:42.227Z,854.97
2018-12-22T09:03:42.159Z,854.98
2018-12-22T09:04:42.131Z,854.96
2018-12-22T09:05:42.169Z,854.96
2018-12-22T09:06:42.111Z,855.11
2018-12-22T09:07:42.143Z,855.20
2018-12-22T09:08:42.118Z,855.23
2018-12-22T09:09:42.147Z,855.32
2018-12-22T09:10:42.073Z,855.25
2018-12-22T09:11:42.072Z,855.29
2018-12-22T09:12:42.088Z,855.30
2018-12-22T09:13:42.099Z,855.33
2018-12-22T09:14:42.025Z,855.33
2018-12-22T09:15:42.062Z,855.40
2018-12-22T09:16:42.008Z,855.39
2018-12-22T09:17:42.018Z,855.42
2018-12-22T09:18:42.118Z,855.42
2018-12-22T09:19:42.121Z,855.46
2018-12-22T09:20:42.038Z,855.54
2018-12-22T09:21:42.001Z,855.54
2018-12-22T09:22:42.666Z,855.57
2018-12-22T09:23:41.965Z,855.62
2018-12-22T09:24:42.034Z,855.71
2018-12-22T09:25:43.119Z,855.75
2018-12-22T09:26:41.900Z,855.76
2018-12-22T09:27:41.906Z,855.73
2018-12-22T09:28:41.909Z,855.67
2018-12-22T09:29:41.889Z,855.65
2018-12-22T09:30:42.680Z,855.61
2018-12-22T09:31:41.980Z,855.55
2018-12-22T09:32:42.698Z,855.51
2018-12-22T09:33:42.902Z,855.53
2018-12-22T09:34:42.176Z,855.54
2018-12-22T09:35:41.821Z,855.56
2018-12-22T09:36:41.797Z,855.57
2018-12-22T09:37:41.814Z,855.56
2018-12-22T09:38:41.772Z,855.56
2018-12-22T09:39:41.821Z,855.59
2018-12-22T09:40:41.774Z,855.56
2018-12-22T09:41:41.787Z,855.51
2018-12-22T09:42:41.719Z,855.51
2018-12-22T09:43:41.707Z,855.59
2018-12-22T09:44:41.746Z,855.56
2018-12-22T09:45:41.712Z,855.60
2018-12-22T09:46:41.713Z,855.56
2018-12-22T09:47:41.676Z,855.44
2018-12-22T09:48:41.669Z,855.41
2018-12-22T09:49:41.745Z,855.40
2018-12-22T09:50:44.688Z,855.36
2018-12-22T09:51:41.653Z,855.30
2018-12-22T09:52:41.657Z,855.27
2018-12-22T09:53:41.707Z,855.26
2018-12-22T09:54:41.606Z,855.23
2018-12-22T09:55:41.680Z,855.22
2018-12-22T09:56:41.592Z,855.27
2018-12-22T09:57:41.619Z,855.19
2018-12-22T09:58:41.595Z,855.13
2018-12-22T09:59:41.574Z,855.12
2018-12-22T10:00:41.581Z,855.12
2018-12-22T10:01:41.566Z,855.09
2018-12-22T10:02:41.549Z,855.11
2018-12-22T10:03:41.575Z,855.12
2018-12-22T10:04:41.568Z,855.07
2018-12-22T10:05:41.541Z,855.04
2018-12-22T10:06:41.507Z,855.06
2018-12-22T10:07:41.510Z,855.13
2018-12-22T10:08:41.475Z,855.18
2018-12-22T10:09:41.516Z,855.15
2018-12-22T10:10:41.452Z,855.17
2018-12-22T10:11:42.146Z,855.25
2018-12-22T10:12:41.426Z,855.22
2018-12-22T10:13:42.180Z,855.22
2018-12-22T10:14:41.455Z,855.14
2018-12-22T10:15:41.391Z,855.17
2018-12-22T10:16:41.448Z,855.16
2018-12-22T10:17:41.467Z,855.12
2018-12-22T10:18:41.390Z,855.10
2018-12-22T10:19:41.358Z,855.17
2018-12-22T10:20:41.352Z,855.14
2018-12-22T10:21:41.305Z,855.21
2018-12-22T10:22:41.291Z,855.17
2018-12-22T10:23:41.406Z,855.28
2018-12-22T10:24:41.302Z,855.20
2018-12-22T10:25:41.293Z,855.21
2018-12-22T10:26:41.280Z,855.19
2018-12-22T10:27:41.312Z,855.17
2018-12-22T10:28:41.326Z,855.18
2018-12-22T10:29:41.244Z,855.25
2018-12-22T10:30:41.242Z,855.16
2018-12-22T10:31:41.230Z,855.17
2018-12-22T10:32:41.196Z,855.16
2018-12-22T10:33:41.214Z,855.19
2018-12-22T10:34:41.203Z,855.17
2018-12-22T10:35:41.170Z,855.09
2018-12-22T10:36:41.172Z,855.04
2018-12-22T10:37:41.166Z,855.07
2018-12-22T10:38:41.407Z,855.03
2018-12-22T10:39:41.108Z,855.05
2018-12-22T10:40:41.113Z,855.14
2018-12-22T10:41:41.103Z,855.20
2018-12-22T10:42:41.096Z,855.24
2018-12-22T10:43:41.139Z,855.24
2018-12-22T10:44:41.075Z,855.21
2018-12-22T10:45:41.170Z,855.22
2018-12-22T10:46:41.057Z,855.35
2018-12-22T10:47:41.151Z,855.43
2018-12-22T10:48:41.244Z,855.46
2018-12-22T10:49:41.081Z,855.43
2018-12-22T10:50:41.026Z,855.42
2018-12-22T10:51:41.292Z,855.52
2018-12-22T10:52:41.148Z,855.48
2018-12-22T10:53:41.042Z,855.50
2018-12-22T10:54:42.030Z,855.50
2018-12-22T10:55:41.290Z,855.40
2018-12-22T10:56:41.085Z,855.36
2018-12-22T10:57:41.895Z,855.34
2018-12-22T10:58:41.977Z,855.39
2018-12-22T10:59:41.060Z,855.37
2018-12-22T11:00:40.938Z,855.27
2018-12-22T11:01:41.369Z,855.26
2018-12-22T11:02:41.315Z,855.19
2018-12-22T11:03:40.907Z,855.18
2018-12-22T11:04:40.972Z,855.13
2018-12-22T11:05:40.891Z,855.06
2018-12-22T11:06:40.859Z,855.09
2018-12-22T11:07:40.872Z,855.04
2018-12-22T11:08:40.796Z,855.06
2018-12-22T11:09:40.869Z,855.02
2018-12-22T11:10:40.841Z,854.98
2018-12-22T11:11:40.772Z,855.04
2018-12-22T11:12:40.949Z,854.95
2018-12-22T11:13:40.759Z,854.97
2018-12-22T11:14:40.737Z,854.92
2018-12-22T11:15:41.095Z,854.92
2018-12-22T11:16:40.740Z,854.90
2018-12-22T11:17:40.908Z,854.89
2018-12-22T11:18:40.781Z,854.96
2018-12-22T11:19:40.745Z,854.97
2018-12-22T11:20:40.710Z,855.02
2018-12-22T11:21:40.649Z,855.03
2018-12-22T11:22:40.959Z,854.92
2018-12-22T11:23:40.697Z,854.82
2018-12-22T11:24:40.647Z,854.86
2018-12-22T11:25:40.704Z,854.91
2018-12-22T11:26:40.634Z,855.08
2018-12-22T11:27:40.651Z,855.05
2018-12-22T11:28:40.598Z,855.09
2018-12-22T11:29:40.722Z,855.14
2018-12-22T11:30:40.563Z,855.06
2018-12-22T11:31:40.620Z,854.96
2018-12-22T11:32:40.543Z,854.88
2018-12-22T11:33:40.572Z,854.94
2018-12-22T11:34:40.538Z,854.96
2018-12-22T11:35:40.524Z,855.04
2018-12-22T11:36:40.492Z,854.99
2018-12-22T11:37:40.494Z,854.95
2018-12-22T11:38:40.523Z,854.87
2018-12-22T11:39:40.510Z,854.89
2018-12-22T11:40:40.540Z,854.97
2018-12-22T11:41:40.505Z,854.93
2018-12-22T11:42:47.676Z,854.95
2018-12-22T11:43:41.500Z,854.81
2018-12-22T11:44:40.526Z,854.80
2018-12-22T11:45:40.487Z,854.88
2018-12-22T11:46:40.462Z,854.85
2018-12-22T11:47:40.464Z,854.80
2018-12-22T11:48:40.431Z,854.89
2018-12-22T11:49:40.441Z,854.95
2018-12-22T11:50:40.423Z,854.95
2018-12-22T11:51:40.446Z,854.98
2018-12-22T11:52:40.312Z,854.97
2018-12-22T11:53:40.321Z,855.03
2018-12-22T11:54:40.303Z,854.97
2018-12-22T11:55:40.321Z,854.91
2018-12-22T11:56:40.274Z,854.86
2018-12-22T11:57:40.303Z,854.84
2018-12-22T11:58:40.308Z,854.89
2018-12-22T11:59:40.465Z,854.90
2018-12-22T12:00:40.349Z,854.84
2018-12-22T12:01:43.678Z,854.81
2018-12-22T12:02:40.217Z,854.84
2018-12-22T12:03:40.220Z,854.92
2018-12-22T12:04:42.080Z,854.85
2018-12-22T12:05:40.225Z,854.82
2018-12-22T12:06:40.238Z,854.82
2018-12-22T12:07:40.238Z,854.83
2018-12-22T12:08:40.254Z,854.81
2018-12-22T12:09:40.212Z,854.74
2018-12-22T12:10:40.245Z,854.72
2018-12-22T12:11:40.204Z,854.78
2018-12-22T12:12:40.182Z,854.85
2018-12-22T12:13:40.135Z,854.91
2018-12-22T12:14:40.202Z,854.83
2018-12-22T12:15:40.198Z,854.82
2018-12-22T12:16:40.293Z,854.86
2018-12-22T12:17:40.268Z,854.80
2018-12-22T12:18:40.185Z,854.82
2018-12-22T12:19:40.167Z,854.81
2018-12-22T12:20:40.188Z,854.76
2018-12-22T12:21:41.907Z,854.77
2018-12-22T12:22:40.148Z,854.88
2018-12-22T12:23:40.139Z,854.86
2018-12-22T12:24:41.139Z,854.87
2018-12-22T12:25:40.043Z,854.95
2018-12-22T12:26:40.272Z,855.06
2018-12-22T12:27:40.762Z,855.11
2018-12-22T12:28:40.156Z,855.09